Time;durP1;ratioP1;P1;durP2;ratioP2;P2;SDS_P1;SDS_P2;PMS_P1;PMS_P2;Temp;Humidity;BMP_temperature;BMP_pressure;BME280_temperature;BME280_humidity;BME280_pressure;Samples;Min_cycle;Max_cycle;Signal;HPM_P1;HPM_P2
2021/10/24 00:00:13;;;;;;;;;;;2.40;99.90;;;;;;8396318;28;19912;-66
2021/10/24 00:04:13;;;;;;;;;;;2.30;99.90;;;;;;8396476;28;19908;-66
2021/10/24 00:08:14;;;;;;;;;;;2.30;99.90;;;;;;8396151;28;19958;-66
2021/10/24 00:12:14;;;;;;;;;;;2.10;99.90;;;;;;8395915;28;19908;-65
2021/10/24 00:16:15;;;;;;;;;;;2.00;99.90;;;;;;8396086;28;19999;-65
2021/10/24 00:20:15;;;;;;;;;;;2.00;99.90;;;;;;8377236;28;19927;-66
2021/10/24 00:24:16;;;;;;;;;;;1.90;99.90;;;;;;8395528;28;19904;-66
2021/10/24 00:28:16;;;;;;;;;;;1.80;99.90;;;;;;8395042;28;19908;-66
2021/10/24 00:32:17;;;;;;;;;;;1.80;99.90;;;;;;8377174;28;20283;-66
2021/10/24 00:36:17;;;;;;;;;;;1.70;99.90;;;;;;8395497;28;19908;-65
2021/10/24 00:40:17;;;;;;;;;;;1.60;99.90;;;;;;8394997;28;20361;-66
2021/10/24 00:44:25;;;;;;;;;;;1.60;99.90;;;;;;8394933;28;20295;-66
2021/10/24 00:48:25;;;;;;;;;;;1.50;99.90;;;;;;8394555;28;20399;-66
2021/10/24 00:52:26;;;;;;;;;;;1.40;99.90;;;;;;8394640;28;19961;-66
2021/10/24 00:56:26;;;;;;;;;;;1.50;99.90;;;;;;8394908;28;19905;-66
2021/10/24 01:00:27;;;;;;;;;;;1.50;99.90;;;;;;8394095;28;19916;-65
2021/10/24 01:04:28;;;;;;;;;;;1.50;99.90;;;;;;8394595;28;19908;-66
2021/10/24 01:08:29;;;;;;;;;;;1.50;99.90;;;;;;8376283;28;20372;-66
2021/10/24 01:12:30;;;;;;;;;;;1.50;99.90;;;;;;8394240;28;19915;-66
2021/10/24 01:16:34;;;;;;;;;;;1.40;99.90;;;;;;8394355;28;20355;-65
2021/10/24 01:20:34;;;;;;;;;;;1.30;99.90;;;;;;8393646;28;20369;-65
2021/10/24 01:24:35;;;;;;;;;;;1.30;99.90;;;;;;8393822;28;19904;-66
2021/10/24 01:28:35;;;;;;;;;;;1.30;99.90;;;;;;8393364;28;19923;-65
2021/10/24 01:32:36;;;;;;;;;;;1.20;99.90;;;;;;8393756;28;19908;-66
2021/10/24 01:36:36;;;;;;;;;;;1.20;99.90;;;;;;8375947;28;19905;-66
2021/10/24 01:40:37;;;;;;;;;;;1.10;99.90;;;;;;8387186;28;19979;-66
2021/10/24 01:44:37;;;;;;;;;;;1.10;99.90;;;;;;8380176;28;19913;-66
2021/10/24 01:48:38;;;;;;;;;;;0.90;99.90;;;;;;8393082;28;20018;-65
2021/10/24 01:52:39;;;;;;;;;;;0.70;99.90;;;;;;8393402;28;19908;-65
2021/10/24 01:56:40;;;;;;;;;;;0.70;99.90;;;;;;8375474;28;19908;-65
2021/10/24 02:00:42;;;;;;;;;;;0.70;99.90;;;;;;8375043;28;19912;-65
2021/10/24 02:04:43;;;;;;;;;;;0.80;99.90;;;;;;8392844;28;19905;-65
2021/10/24 02:08:43;;;;;;;;;;;0.80;99.90;;;;;;8393078;28;19999;-65
2021/10/24 02:12:44;;;;;;;;;;;0.60;99.90;;;;;;8393256;28;19908;-65
2021/10/24 02:16:44;;;;;;;;;;;0.50;99.90;;;;;;8393169;28;19904;-65
2021/10/24 02:20:45;;;;;;;;;;;0.80;99.90;;;;;;8392719;28;19930;-65
2021/10/24 02:24:46;;;;;;;;;;;0.70;99.90;;;;;;8392937;28;19908;-66
2021/10/24 02:28:46;;;;;;;;;;;0.70;99.90;;;;;;8374022;28;19951;-66
2021/10/24 02:32:46;;;;;;;;;;;0.70;99.90;;;;;;8392614;28;20307;-65
2021/10/24 02:36:47;;;;;;;;;;;1.10;99.90;;;;;;8392573;28;20408;-65
2021/10/24 02:40:47;;;;;;;;;;;0.70;99.90;;;;;;8374620;28;19904;-65
2021/10/24 02:44:48;;;;;;;;;;;0.70;99.90;;;;;;8392785;28;19904;-66
2021/10/24 02:48:48;;;;;;;;;;;0.50;99.90;;;;;;8374450;28;19905;-65
2021/10/24 02:52:49;;;;;;;;;;;0.40;99.90;;;;;;8392382;28;19909;-66
2021/10/24 02:56:50;;;;;;;;;;;0.30;99.90;;;;;;8392577;28;19948;-65
2021/10/24 03:00:50;;;;;;;;;;;0.40;99.90;;;;;;8398130;28;19999;-65
2021/10/24 03:04:51;;;;;;;;;;;0.20;99.90;;;;;;8398230;28;19908;-65
2021/10/24 03:08:51;;;;;;;;;;;0.10;99.90;;;;;;8397423;28;19950;-65
2021/10/24 03:12:51;;;;;;;;;;;0.40;99.90;;;;;;8397848;28;19940;-66
2021/10/24 03:16:52;;;;;;;;;;;0.40;99.90;;;;;;8397819;28;19931;-65
2021/10/24 03:20:52;;;;;;;;;;;0.50;99.90;;;;;;8379447;28;20360;-65
2021/10/24 03:24:53;;;;;;;;;;;0.50;99.90;;;;;;8397538;28;20276;-65
2021/10/24 03:28:53;;;;;;;;;;;0.40;99.90;;;;;;8395672;28;19954;-65
2021/10/24 03:32:54;;;;;;;;;;;0.30;99.90;;;;;;8397286;28;19908;-65
2021/10/24 03:36:54;;;;;;;;;;;0.20;99.90;;;;;;8397355;28;19908;-65
2021/10/24 03:40:55;;;;;;;;;;;0.30;99.90;;;;;;8396827;28;19911;-65
2021/10/24 03:44:55;;;;;;;;;;;0.20;99.90;;;;;;8378993;28;19905;-66
2021/10/24 03:48:56;;;;;;;;;;;-0.10;99.90;;;;;;8396497;28;20025;-65
2021/10/24 03:52:56;;;;;;;;;;;-0.10;99.90;;;;;;8396704;28;19915;-65
2021/10/24 03:56:57;;;;;;;;;;;-0.30;99.90;;;;;;8378470;28;19912;-65
2021/10/24 04:00:57;;;;;;;;;;;-0.30;99.90;;;;;;8378173;28;20368;-65
2021/10/24 04:04:58;;;;;;;;;;;-0.30;99.90;;;;;;8396294;28;19905;-66
2021/10/24 04:08:58;;;;;;;;;;;-0.40;99.90;;;;;;8378154;28;19995;-65
2021/10/24 04:12:58;;;;;;;;;;;-0.40;99.90;;;;;;8392305;28;19958;-65
2021/10/24 04:16:59;;;;;;;;;;;-0.60;99.90;;;;;;8378514;28;20338;-66
2021/10/24 04:20:59;;;;;;;;;;;-0.50;99.90;;;;;;8380592;28;19913;-65
2021/10/24 04:25:00;;;;;;;;;;;-0.60;99.90;;;;;;8360421;28;19974;-65
2021/10/24 04:29:01;;;;;;;;;;;-0.70;99.90;;;;;;8387039;28;20307;-65
2021/10/24 04:33:01;;;;;;;;;;;-0.70;99.90;;;;;;8389875;28;19913;-66
2021/10/24 04:37:02;;;;;;;;;;;-0.70;99.90;;;;;;8378216;28;19923;-66
2021/10/24 04:41:03;;;;;;;;;;;-0.70;99.90;;;;;;8378881;28;19915;-65
2021/10/24 04:45:04;;;;;;;;;;;-0.60;99.90;;;;;;8377889;28;19978;-65
2021/10/24 04:49:04;;;;;;;;;;;-0.70;99.90;;;;;;8382369;28;19912;-65
2021/10/24 04:53:06;;;;;;;;;;;-0.70;99.90;;;;;;8393592;28;19908;-66
2021/10/24 04:57:06;;;;;;;;;;;-0.80;99.90;;;;;;8375850;28;19905;-64
2021/10/24 05:01:08;;;;;;;;;;;-0.70;99.90;;;;;;8375335;28;19999;-64
2021/10/24 05:05:09;;;;;;;;;;;-0.80;99.90;;;;;;8394322;28;19904;-65
2021/10/24 05:09:09;;;;;;;;;;;-0.80;99.90;;;;;;8382589;28;19909;-65
2021/10/24 05:13:10;;;;;;;;;;;-0.60;99.90;;;;;;8376938;28;19963;-65
2021/10/24 05:17:10;;;;;;;;;;;-0.80;99.90;;;;;;8390598;28;20287;-65
2021/10/24 05:21:11;;;;;;;;;;;-0.70;99.90;;;;;;8390085;28;19954;-65
2021/10/24 05:25:11;;;;;;;;;;;-0.70;99.90;;;;;;8379710;28;19915;-64
2021/10/24 05:29:11;;;;;;;;;;;-0.70;99.90;;;;;;8378693;28;19911;-64
2021/10/24 05:33:12;;;;;;;;;;;-0.80;99.90;;;;;;8358185;28;20425;-65
2021/10/24 05:37:12;;;;;;;;;;;-0.80;99.90;;;;;;8358760;28;19913;-65
2021/10/24 05:41:13;;;;;;;;;;;-0.60;99.90;;;;;;8391779;28;20323;-65
2021/10/24 05:45:13;;;;;;;;;;;-0.70;99.90;;;;;;8377339;28;20280;-64
2021/10/24 05:49:15;;;;;;;;;;;-0.70;99.90;;;;;;8370677;28;20375;-64
2021/10/24 05:53:15;;;;;;;;;;;-0.80;99.90;;;;;;8389667;28;20002;-65
2021/10/24 05:57:16;;;;;;;;;;;-0.40;99.90;;;;;;8408675;28;19966;-64
2021/10/24 06:01:16;;;;;;;;;;;-0.20;99.90;;;;;;8374897;28;19912;-65
2021/10/24 06:05:17;;;;;;;;;;;-0.20;99.90;;;;;;8395558;28;19974;-64
2021/10/24 06:09:17;;;;;;;;;;;-0.40;99.90;;;;;;8357037;28;19908;-65
2021/10/24 06:13:18;;;;;;;;;;;-0.50;99.90;;;;;;8374147;28;19959;-65
2021/10/24 06:17:18;;;;;;;;;;;-0.20;99.90;;;;;;8357962;28;20371;-64
2021/10/24 06:21:19;;;;;;;;;;;-0.10;99.90;;;;;;8379160;28;19909;-65
2021/10/24 06:25:20;;;;;;;;;;;-0.10;99.90;;;;;;8359502;28;19920;-64
2021/10/24 06:29:20;;;;;;;;;;;0.00;99.90;;;;;;8374687;28;19912;-65
2021/10/24 06:33:21;;;;;;;;;;;0.20;99.90;;;;;;8363937;28;20326;-64
2021/10/24 06:37:22;;;;;;;;;;;0.40;99.90;;;;;;8368999;28;19954;-64
2021/10/24 06:41:22;;;;;;;;;;;0.40;99.90;;;;;;8380957;28;20303;-65
2021/10/24 06:45:25;;;;;;;;;;;0.60;99.90;;;;;;8382390;28;19998;-64
2021/10/24 06:49:25;;;;;;;;;;;0.70;99.90;;;;;;8381709;28;20296;-64
2021/10/24 06:53:26;;;;;;;;;;;0.70;99.90;;;;;;8381762;28;19908;-64
2021/10/24 06:57:26;;;;;;;;;;;0.80;99.90;;;;;;8382307;28;20418;-65
2021/10/24 07:01:27;;;;;;;;;;;0.90;99.90;;;;;;8357951;28;19936;-65
2021/10/24 07:05:27;;;;;;;;;;;1.00;99.90;;;;;;8349718;28;19913;-65
2021/10/24 07:09:28;;;;;;;;;;;1.10;99.90;;;;;;8379607;28;19920;-65
2021/10/24 07:13:28;;;;;;;;;;;1.20;99.90;;;;;;8395959;28;19919;-65
2021/10/24 07:17:28;;;;;;;;;;;1.50;99.90;;;;;;8380224;28;19911;-65
2021/10/24 07:21:29;;;;;;;;;;;1.70;99.90;;;;;;8385945;28;19939;-65
2021/10/24 07:25:29;;;;;;;;;;;1.80;99.90;;;;;;8392908;28;20427;-64
2021/10/24 07:29:30;;;;;;;;;;;1.80;99.90;;;;;;8394287;28;19921;-65
2021/10/24 07:33:30;;;;;;;;;;;1.70;99.90;;;;;;8392555;28;19919;-64
2021/10/24 07:37:31;;;;;;;;;;;2.00;99.90;;;;;;8394466;28;20471;-64
2021/10/24 07:41:31;;;;;;;;;;;2.30;99.90;;;;;;8386614;28;20046;-64
2021/10/24 07:45:32;;;;;;;;;;;2.70;99.90;;;;;;8385596;28;19909;-64
2021/10/24 07:49:32;;;;;;;;;;;2.80;99.90;;;;;;8359933;28;19905;-64
2021/10/24 07:53:33;;;;;;;;;;;3.00;99.90;;;;;;8378734;28;19915;-64
2021/10/24 07:57:33;;;;;;;;;;;3.10;99.90;;;;;;8379194;28;20272;-64
2021/10/24 08:01:34;;;;;;;;;;;3.00;99.90;;;;;;8360565;28;20352;-64
2021/10/24 08:05:35;;;;;;;;;;;3.10;99.90;;;;;;8378767;28;19900;-64
2021/10/24 08:09:35;;;;;;;;;;;3.00;99.90;;;;;;8378626;28;19904;-65
2021/10/24 08:13:36;;;;;;;;;;;3.20;99.90;;;;;;8385119;28;19916;-61
2021/10/24 08:17:37;;;;;;;;;;;3.10;99.90;;;;;;8384895;28;19912;-61
2021/10/24 08:21:37;;;;;;;;;;;3.20;99.90;;;;;;8387309;28;19904;-62
2021/10/24 08:25:38;;;;;;;;;;;3.30;99.90;;;;;;8393623;28;19954;-62
2021/10/24 08:29:39;;;;;;;;;;;3.60;99.90;;;;;;8394156;28;20364;-61
2021/10/24 08:33:39;;;;;;;;;;;3.70;99.90;;;;;;8391488;28;19912;-62
2021/10/24 08:37:40;;;;;;;;;;;3.70;99.90;;;;;;8393951;28;19915;-61
2021/10/24 08:41:41;;;;;;;;;;;3.90;99.90;;;;;;8380432;28;19913;-61
2021/10/24 08:45:42;;;;;;;;;;;4.20;99.90;;;;;;8373723;28;19909;-62
2021/10/24 08:49:43;;;;;;;;;;;4.50;99.90;;;;;;8375626;28;19904;-61
2021/10/24 08:53:44;;;;;;;;;;;4.60;99.90;;;;;;8378766;28;19926;-61
2021/10/24 08:57:48;;;;;;;;;;;4.70;99.90;;;;;;8376894;28;19919;-61
2021/10/24 09:01:50;;;;;;;;;;;4.80;99.90;;;;;;8391656;28;19904;-62
2021/10/24 09:05:52;;;;;;;;;;;4.90;99.90;;;;;;8392189;28;20415;-62
2021/10/24 09:09:53;;;;;;;;;;;5.20;99.90;;;;;;8389134;28;20403;-62
2021/10/24 09:13:54;;;;;;;;;;;5.50;99.90;;;;;;8391925;28;19916;-62
2021/10/24 09:18:12;;;;;;;;;;;5.70;99.90;;;;;;8392925;28;19911;-62
2021/10/24 09:22:21;;;;;;;;;;;5.80;99.90;;;;;;8373909;28;19916;-62
2021/10/24 09:26:24;;;;;;;;;;;6.10;99.90;;;;;;8377011;28;19916;-62
2021/10/24 09:30:27;;;;;;;;;;;6.30;99.90;;;;;;8379970;28;19915;-62
2021/10/24 09:34:29;;;;;;;;;;;6.50;99.90;;;;;;8370759;28;20433;-61
2021/10/24 09:38:29;;;;;;;;;;;6.80;99.90;;;;;;8359552;28;19952;-62
2021/10/24 09:42:29;;;;;;;;;;;6.60;99.90;;;;;;8360220;28;20036;-62
2021/10/24 09:46:30;;;;;;;;;;;6.40;99.90;;;;;;8360303;28;19904;-62
2021/10/24 09:50:32;;;;;;;;;;;6.40;99.90;;;;;;8359722;28;19905;-62
2021/10/24 09:54:34;;;;;;;;;;;6.80;99.90;;;;;;8360038;28;19915;-62
2021/10/24 09:58:42;;;;;;;;;;;7.00;99.90;;;;;;8378426;28;19919;-62
2021/10/24 10:02:42;;;;;;;;;;;7.30;99.90;;;;;;8393271;28;19971;-62
2021/10/24 10:06:44;;;;;;;;;;;7.60;99.90;;;;;;8387034;28;19909;-63
2021/10/24 10:10:52;;;;;;;;;;;7.80;99.90;;;;;;8369656;28;19913;-62
2021/10/24 10:14:55;;;;;;;;;;;8.10;99.90;;;;;;8378849;28;19923;-62
2021/10/24 10:18:55;;;;;;;;;;;8.60;99.90;;;;;;8370547;28;20369;-62
2021/10/24 10:23:05;;;;;;;;;;;8.70;99.90;;;;;;8385457;28;19962;-61
2021/10/24 10:27:25;;;;;;;;;;;8.80;99.90;;;;;;8386809;28;19916;-61
2021/10/24 10:31:25;;;;;;;;;;;8.70;99.90;;;;;;8370958;28;21279;-62
2021/10/24 10:35:29;;;;;;;;;;;9.20;99.90;;;;;;8393372;28;19912;-62
2021/10/24 10:39:35;;;;;;;;;;;9.50;99.90;;;;;;8387281;28;19912;-62
2021/10/24 10:43:36;;;;;;;;;;;9.70;99.90;;;;;;8387784;28;19912;-61
2021/10/24 10:47:50;;;;;;;;;;;10.10;99.90;;;;;;8393328;28;20363;-62
2021/10/24 10:51:50;;;;;;;;;;;10.30;99.90;;;;;;8374216;28;19936;-62
2021/10/24 10:56:00;;;;;;;;;;;10.80;99.90;;;;;;8382823;28;19912;-62
2021/10/24 11:00:21;;;;;;;;;;;11.10;99.90;;;;;;8363599;28;19917;-60
2021/10/24 11:04:22;;;;;;;;;;;11.70;99.90;;;;;;8381628;28;19915;-60
2021/10/24 11:08:41;;;;;;;;;;;12.60;99.90;;;;;;8365961;28;20276;-60
2021/10/24 11:12:43;;;;;;;;;;;17.00;99.90;;;;;;8377803;28;20327;-61
2021/10/24 11:16:59;;;;;;;;;;;20.50;99.10;;;;;;8382991;28;19912;-60
2021/10/24 11:21:00;;;;;;;;;;;21.50;93.10;;;;;;8391009;28;19912;-60
2021/10/24 11:25:00;;;;;;;;;;;24.40;78.80;;;;;;8374345;28;19915;-61
2021/10/24 11:29:03;;;;;;;;;;;25.40;64.10;;;;;;8386561;28;19905;-61
2021/10/24 11:33:04;;;;;;;;;;;26.20;60.20;;;;;;8384776;28;20071;-61
2021/10/24 11:37:06;;;;;;;;;;;27.60;54.80;;;;;;8379689;28;20307;-61
2021/10/24 11:41:16;;;;;;;;;;;28.80;51.70;;;;;;8370396;28;19912;-61
2021/10/24 11:45:17;;;;;;;;;;;30.10;47.70;;;;;;8385698;28;19928;-61
2021/10/24 11:49:18;;;;;;;;;;;31.20;44.40;;;;;;8386692;28;20007;-62
2021/10/24 11:53:19;;;;;;;;;;;30.10;45.30;;;;;;8386101;28;19916;-61
2021/10/24 11:58:17;;;;;;;;;;;30.70;43.30;;;;;;8379543;28;19919;-61
2021/10/24 12:01:47;;;;;;;;;;;31.50;40.40;;;;;;8366611;28;19920;-60
2021/10/24 12:05:48;;;;;;;;;;;28.50;44.50;;;;;;8375906;28;19912;-61
2021/10/24 12:09:51;;;;;;;;;;;26.60;48.40;;;;;;8375247;28;19911;-61
2021/10/24 12:13:52;;;;;;;;;;;27.60;47.80;;;;;;8379419;28;19939;-61
2021/10/24 12:17:54;;;;;;;;;;;28.10;47.00;;;;;;8380712;28;20416;-61
2021/10/24 12:21:56;;;;;;;;;;;29.10;45.90;;;;;;8376953;28;20669;-61
2021/10/24 12:25:58;;;;;;;;;;;30.50;42.00;;;;;;8383047;28;20287;-61
2021/10/24 12:30:03;;;;;;;;;;;30.10;42.10;;;;;;8371633;28;20595;-61
2021/10/24 12:34:10;;;;;;;;;;;28.60;44.80;;;;;;8374862;28;20011;-60
2021/10/24 12:38:10;;;;;;;;;;;28.90;44.20;;;;;;8363003;28;20399;-60
2021/10/24 12:42:17;;;;;;;;;;;30.40;42.90;;;;;;8357439;28;19904;-61
2021/10/24 12:46:28;;;;;;;;;;;31.10;40.60;;;;;;8357818;28;19960;-62
2021/10/24 12:50:33;;;;;;;;;;;31.00;42.20;;;;;;8340378;28;19913;-62
2021/10/24 12:54:35;;;;;;;;;;;32.70;40.00;;;;;;8359482;28;19924;-62
2021/10/24 12:58:35;;;;;;;;;;;33.90;37.70;;;;;;8366186;28;20411;-62
2021/10/24 13:02:38;;;;;;;;;;;32.80;38.90;;;;;;8360442;28;19905;-62
2021/10/24 13:06:38;;;;;;;;;;;33.80;37.20;;;;;;8339592;28;19962;-61
2021/10/24 13:10:39;;;;;;;;;;;33.90;36.40;;;;;;8356582;28;19913;-62
2021/10/24 13:14:40;;;;;;;;;;;34.70;34.90;;;;;;8359904;28;19916;-62
2021/10/24 13:18:40;;;;;;;;;;;34.20;35.30;;;;;;8370506;28;19912;-62
2021/10/24 13:22:54;;;;;;;;;;;33.20;36.20;;;;;;8356796;28;19909;-61
2021/10/24 13:26:55;;;;;;;;;;;32.90;37.00;;;;;;8374576;28;19909;-62
2021/10/24 13:30:55;;;;;;;;;;;33.00;37.90;;;;;;8374519;28;19928;-62
2021/10/24 13:34:56;;;;;;;;;;;34.50;35.90;;;;;;8374944;28;19916;-62
2021/10/24 13:38:57;;;;;;;;;;;35.40;34.20;;;;;;8369909;28;19950;-61
2021/10/24 13:42:58;;;;;;;;;;;35.00;34.50;;;;;;8366287;28;19913;-62
2021/10/24 13:46:58;;;;;;;;;;;32.40;36.90;;;;;;8354380;28;19916;-62
2021/10/24 13:50:59;;;;;;;;;;;31.20;37.60;;;;;;8353746;28;19920;-62
2021/10/24 13:54:59;;;;;;;;;;;27.30;43.70;;;;;;8347372;28;20005;-62
2021/10/24 13:59:00;;;;;;;;;;;23.90;50.70;;;;;;8369874;28;19948;-62
2021/10/24 14:03:03;;;;;;;;;;;22.20;55.20;;;;;;8376678;28;20364;-62
2021/10/24 14:07:04;;;;;;;;;;;20.70;58.80;;;;;;8376398;28;19916;-61
2021/10/24 14:11:05;;;;;;;;;;;18.70;66.10;;;;;;8377590;28;19966;-61
2021/10/24 14:15:05;;;;;;;;;;;17.50;71.60;;;;;;8372671;28;19916;-61
2021/10/24 14:19:06;;;;;;;;;;;16.70;75.80;;;;;;8358532;28;19914;-61
2021/10/24 14:23:07;;;;;;;;;;;16.10;79.80;;;;;;8376244;28;19908;-61
2021/10/24 14:27:07;;;;;;;;;;;15.60;83.50;;;;;;8365429;28;19919;-61
2021/10/24 14:31:09;;;;;;;;;;;14.90;87.40;;;;;;8358989;28;19912;-61
2021/10/24 14:35:10;;;;;;;;;;;14.60;90.50;;;;;;8336717;28;19923;-61
2021/10/24 14:39:12;;;;;;;;;;;14.10;93.40;;;;;;8361322;28;19912;-61
2021/10/24 14:43:12;;;;;;;;;;;13.80;97.20;;;;;;8360202;28;19913;-61
2021/10/24 14:47:13;;;;;;;;;;;13.60;99.90;;;;;;8336677;28;19916;-62
2021/10/24 14:51:14;;;;;;;;;;;13.30;99.90;;;;;;8358825;28;19999;-61
2021/10/24 14:55:15;;;;;;;;;;;13.20;99.90;;;;;;8372731;28;19923;-61
2021/10/24 14:59:15;;;;;;;;;;;13.00;99.90;;;;;;8371545;28;19920;-61
2021/10/24 15:03:15;;;;;;;;;;;12.80;99.90;;;;;;8372655;28;19916;-61
2021/10/24 15:07:16;;;;;;;;;;;12.50;99.90;;;;;;8360668;28;19913;-61
2021/10/24 15:11:16;;;;;;;;;;;12.40;99.90;;;;;;8365750;28;19962;-60
2021/10/24 15:15:18;;;;;;;;;;;12.40;99.90;;;;;;8378424;28;19923;-61
2021/10/24 15:23:24;;;;;;;;;;;12.10;99.90;;;;;;8380906;28;19947;-60
2021/10/24 15:27:25;;;;;;;;;;;12.20;99.90;;;;;;8355129;28;19913;-60
2021/10/24 15:31:29;;;;;;;;;;;12.40;99.90;;;;;;8371130;28;20580;-60
2021/10/24 15:35:30;;;;;;;;;;;12.10;99.90;;;;;;8380414;28;19916;-60
2021/10/24 15:39:31;;;;;;;;;;;11.80;99.90;;;;;;8365801;28;19913;-61
2021/10/24 15:43:31;;;;;;;;;;;11.50;99.90;;;;;;8359773;28;20373;-61
2021/10/24 15:47:32;;;;;;;;;;;11.50;99.90;;;;;;8360784;28;19912;-61
2021/10/24 15:51:33;;;;;;;;;;;11.20;99.90;;;;;;8371612;28;20328;-61
2021/10/24 15:55:34;;;;;;;;;;;10.70;99.90;;;;;;8347565;28;19909;-60
2021/10/24 15:59:35;;;;;;;;;;;10.70;99.90;;;;;;8361857;28;19912;-61
2021/10/24 16:03:35;;;;;;;;;;;10.50;99.90;;;;;;8365449;28;19923;-61
2021/10/24 16:07:36;;;;;;;;;;;9.90;99.90;;;;;;8384867;28;19916;-60
2021/10/24 16:11:37;;;;;;;;;;;9.70;99.90;;;;;;8383621;28;20306;-59
2021/10/24 16:15:37;;;;;;;;;;;9.40;99.90;;;;;;8369991;28;19908;-60
2021/10/24 16:19:37;;;;;;;;;;;9.20;99.90;;;;;;8383744;28;19908;-60
2021/10/24 16:23:38;;;;;;;;;;;8.80;99.90;;;;;;8367286;28;19966;-61
2021/10/24 16:27:38;;;;;;;;;;;8.30;99.90;;;;;;8386417;28;19914;-60
2021/10/24 16:31:39;;;;;;;;;;;8.00;99.90;;;;;;8385086;28;19904;-61
2021/10/24 16:35:40;;;;;;;;;;;8.20;99.90;;;;;;8381670;28;19954;-60
2021/10/24 16:39:40;;;;;;;;;;;7.80;99.90;;;;;;8384441;28;20392;-64
2021/10/24 16:43:41;;;;;;;;;;;7.60;99.90;;;;;;8390483;28;19915;-64
2021/10/24 16:47:41;;;;;;;;;;;7.40;99.90;;;;;;8393873;28;19980;-64
2021/10/24 16:51:42;;;;;;;;;;;7.30;99.90;;;;;;8393892;28;20364;-64
2021/10/24 16:55:42;;;;;;;;;;;7.30;99.90;;;;;;8390750;28;19916;-63
2021/10/24 16:59:43;;;;;;;;;;;7.00;99.90;;;;;;8391594;28;20437;-64
2021/10/24 17:03:43;;;;;;;;;;;7.00;99.90;;;;;;8377583;28;19948;-63
2021/10/24 17:07:44;;;;;;;;;;;7.00;99.90;;;;;;8370151;28;19917;-64
2021/10/24 17:11:45;;;;;;;;;;;6.90;99.90;;;;;;8373133;28;19912;-64
2021/10/24 17:15:45;;;;;;;;;;;6.60;99.90;;;;;;8367705;28;19916;-63
2021/10/24 17:19:49;;;;;;;;;;;6.60;99.90;;;;;;8371914;28;19994;-64
2021/10/24 17:23:49;;;;;;;;;;;6.40;99.90;;;;;;8373008;28;19919;-64
2021/10/24 17:27:50;;;;;;;;;;;6.50;99.90;;;;;;8371373;28;19908;-64
2021/10/24 17:31:52;;;;;;;;;;;6.20;99.90;;;;;;8368376;28;19912;-64
2021/10/24 17:35:52;;;;;;;;;;;6.10;99.90;;;;;;8373624;28;20051;-64
2021/10/24 17:39:53;;;;;;;;;;;5.90;99.90;;;;;;8368564;28;19919;-64
2021/10/24 17:43:53;;;;;;;;;;;5.70;99.90;;;;;;8341667;28;20011;-64
2021/10/24 17:47:54;;;;;;;;;;;5.50;99.90;;;;;;8354857;28;19913;-64
2021/10/24 17:51:54;;;;;;;;;;;5.40;99.90;;;;;;8341388;28;19954;-64
2021/10/24 17:55:55;;;;;;;;;;;5.30;99.90;;;;;;8375604;28;19909;-65
2021/10/24 17:59:56;;;;;;;;;;;5.20;99.90;;;;;;8351843;28;19921;-64
2021/10/24 18:03:56;;;;;;;;;;;5.10;99.90;;;;;;8375208;28;20637;-64
2021/10/24 18:07:57;;;;;;;;;;;5.10;99.90;;;;;;8366796;28;19916;-63
2021/10/24 18:11:57;;;;;;;;;;;4.90;99.90;;;;;;8355032;28;19917;-64
2021/10/24 18:15:58;;;;;;;;;;;4.80;99.90;;;;;;8373477;28;19912;-63
2021/10/24 18:19:58;;;;;;;;;;;4.70;99.90;;;;;;8388329;28;19920;-63
2021/10/24 18:24:04;;;;;;;;;;;4.60;99.90;;;;;;8356547;28;19919;-64
2021/10/24 18:28:06;;;;;;;;;;;4.50;99.90;;;;;;8387284;28;19999;-64
2021/10/24 18:32:08;;;;;;;;;;;4.40;99.90;;;;;;8392764;28;19931;-64
2021/10/24 18:36:09;;;;;;;;;;;4.30;99.90;;;;;;8377224;28;19920;-65
2021/10/24 18:40:10;;;;;;;;;;;4.20;99.90;;;;;;8362944;28;19970;-63
2021/10/24 18:44:10;;;;;;;;;;;4.20;99.90;;;;;;8379742;28;19995;-63
2021/10/24 18:48:11;;;;;;;;;;;4.30;99.90;;;;;;8368953;28;19923;-63
2021/10/24 18:52:11;;;;;;;;;;;4.20;99.90;;;;;;8370989;28;19935;-63
2021/10/24 18:56:12;;;;;;;;;;;4.30;99.90;;;;;;8364511;28;19908;-63
2021/10/24 19:00:12;;;;;;;;;;;4.20;99.90;;;;;;8368529;28;19916;-64
2021/10/24 19:04:13;;;;;;;;;;;4.10;99.90;;;;;;8367164;28;20011;-64
2021/10/24 19:08:14;;;;;;;;;;;4.10;99.90;;;;;;8383185;28;19917;-65
2021/10/24 19:12:20;;;;;;;;;;;3.80;99.90;;;;;;8380062;28;19917;-64
2021/10/24 19:16:21;;;;;;;;;;;4.00;99.90;;;;;;8372549;28;20615;-65
2021/10/24 19:20:21;;;;;;;;;;;4.00;99.90;;;;;;8371696;28;19912;-64
2021/10/24 19:24:22;;;;;;;;;;;4.00;99.90;;;;;;8380716;28;19969;-63
2021/10/24 19:28:24;;;;;;;;;;;3.80;99.90;;;;;;8382863;28;19980;-64
2021/10/24 19:32:28;;;;;;;;;;;3.80;99.90;;;;;;8383511;28;19956;-64
2021/10/24 19:36:28;;;;;;;;;;;4.00;99.90;;;;;;8367385;28;20383;-64
2021/10/24 19:40:29;;;;;;;;;;;4.00;99.90;;;;;;8363482;28;19913;-64
2021/10/24 19:44:29;;;;;;;;;;;3.90;99.90;;;;;;8371744;28;19913;-64
2021/10/24 19:48:30;;;;;;;;;;;3.90;99.90;;;;;;8360573;28;20373;-64
2021/10/24 19:52:30;;;;;;;;;;;4.00;99.90;;;;;;8392129;28;20017;-64
2021/10/24 19:56:33;;;;;;;;;;;3.80;99.90;;;;;;8425366;28;20283;-65
2021/10/24 20:00:34;;;;;;;;;;;3.80;99.90;;;;;;8374883;28;19916;-64
2021/10/24 20:04:34;;;;;;;;;;;3.60;99.90;;;;;;8393143;28;19915;-65
2021/10/24 20:08:37;;;;;;;;;;;3.80;99.90;;;;;;8392474;28;19911;-64
2021/10/24 20:12:38;;;;;;;;;;;3.80;99.90;;;;;;8390090;28;19952;-64
2021/10/24 20:16:39;;;;;;;;;;;3.80;99.90;;;;;;8388804;28;20396;-64
2021/10/24 20:20:40;;;;;;;;;;;3.60;99.90;;;;;;8366305;28;19905;-64
2021/10/24 20:24:40;;;;;;;;;;;3.70;99.90;;;;;;8378531;28;19908;-65
2021/10/24 20:28:41;;;;;;;;;;;3.60;99.90;;;;;;8378122;28;19904;-64
2021/10/24 20:32:41;;;;;;;;;;;3.50;99.90;;;;;;8391630;28;20037;-65
2021/10/24 20:36:44;;;;;;;;;;;3.30;99.90;;;;;;8377965;28;19911;-64
2021/10/24 20:40:44;;;;;;;;;;;3.30;99.90;;;;;;8377381;28;19904;-64
2021/10/24 20:44:45;;;;;;;;;;;3.20;99.90;;;;;;8377824;28;19927;-65
2021/10/24 20:48:46;;;;;;;;;;;3.00;99.90;;;;;;8377617;28;19905;-64
2021/10/24 20:52:46;;;;;;;;;;;3.00;99.90;;;;;;8376730;28;19909;-65
2021/10/24 20:56:47;;;;;;;;;;;3.00;99.90;;;;;;8379076;28;19905;-64
2021/10/24 21:00:47;;;;;;;;;;;2.70;99.90;;;;;;8377029;28;19913;-65
2021/10/24 21:04:48;;;;;;;;;;;2.70;99.90;;;;;;8377649;28;20368;-65
2021/10/24 21:08:48;;;;;;;;;;;2.60;99.90;;;;;;8391275;28;19956;-65
2021/10/24 21:12:49;;;;;;;;;;;2.70;99.90;;;;;;8393837;28;19915;-65
2021/10/24 21:16:49;;;;;;;;;;;2.60;99.90;;;;;;8391103;28;19915;-65
2021/10/24 21:20:50;;;;;;;;;;;2.70;99.90;;;;;;8373363;28;20420;-65
2021/10/24 21:24:51;;;;;;;;;;;2.70;99.90;;;;;;8376154;28;20007;-65
2021/10/24 21:28:51;;;;;;;;;;;2.60;99.90;;;;;;8393788;28;19911;-65
2021/10/24 21:32:52;;;;;;;;;;;2.70;99.90;;;;;;8375719;28;19915;-65
2021/10/24 21:36:52;;;;;;;;;;;2.60;99.90;;;;;;8375603;28;19908;-65
2021/10/24 21:40:53;;;;;;;;;;;2.50;99.90;;;;;;8393302;28;19965;-66
2021/10/24 21:44:54;;;;;;;;;;;2.40;99.90;;;;;;8393592;28;19927;-65
2021/10/24 21:48:55;;;;;;;;;;;2.50;99.90;;;;;;8393414;28;20281;-65
2021/10/24 21:52:55;;;;;;;;;;;2.40;99.90;;;;;;8375320;28;19915;-65
2021/10/24 21:56:55;;;;;;;;;;;2.40;99.90;;;;;;8375029;28;20002;-65
2021/10/24 22:00:56;;;;;;;;;;;2.50;99.90;;;;;;8393112;28;20422;-65
2021/10/24 22:04:56;;;;;;;;;;;2.50;99.90;;;;;;8381019;28;19904;-65
2021/10/24 22:08:58;;;;;;;;;;;2.50;99.90;;;;;;8399834;28;19904;-65
2021/10/24 22:12:58;;;;;;;;;;;2.40;99.90;;;;;;8399825;28;20433;-65
2021/10/24 22:16:59;;;;;;;;;;;2.20;99.90;;;;;;8399731;28;20080;-65
2021/10/24 22:20:59;;;;;;;;;;;2.10;99.90;;;;;;8399482;28;19913;-65
2021/10/24 22:25:00;;;;;;;;;;;1.80;99.90;;;;;;8381804;28;19974;-65
2021/10/24 22:29:00;;;;;;;;;;;2.00;99.90;;;;;;8398711;28;19909;-65
2021/10/24 22:33:01;;;;;;;;;;;2.00;99.90;;;;;;8399228;28;19999;-65
2021/10/24 22:37:02;;;;;;;;;;;1.70;99.90;;;;;;8399221;28;20379;-65
2021/10/24 22:41:04;;;;;;;;;;;1.90;99.90;;;;;;8398374;28;20089;-65
2021/10/24 22:45:04;;;;;;;;;;;1.80;99.90;;;;;;8398933;28;19958;-65
2021/10/24 22:49:05;;;;;;;;;;;1.80;99.90;;;;;;8380483;28;19908;-65
2021/10/24 22:53:05;;;;;;;;;;;1.80;99.90;;;;;;8398369;28;20384;-65
2021/10/24 22:57:06;;;;;;;;;;;1.80;99.90;;;;;;8380302;28;19911;-65
2021/10/24 23:01:06;;;;;;;;;;;1.80;99.90;;;;;;8397932;28;19913;-65
2021/10/24 23:05:07;;;;;;;;;;;1.70;99.90;;;;;;8398386;28;20323;-65
2021/10/24 23:09:08;;;;;;;;;;;1.70;99.90;;;;;;8380061;28;19915;-65
2021/10/24 23:13:09;;;;;;;;;;;1.60;99.90;;;;;;8397511;28;20360;-65
2021/10/24 23:17:09;;;;;;;;;;;1.50;99.90;;;;;;8379164;28;19997;-65
2021/10/24 23:21:10;;;;;;;;;;;1.20;99.90;;;;;;8398009;28;20292;-65
2021/10/24 23:25:11;;;;;;;;;;;1.40;99.90;;;;;;8397861;28;19911;-65
2021/10/24 23:29:11;;;;;;;;;;;1.40;99.90;;;;;;8397215;28;19904;-65
2021/10/24 23:33:12;;;;;;;;;;;1.40;99.90;;;;;;8397103;28;19909;-65
2021/10/24 23:37:12;;;;;;;;;;;1.20;99.90;;;;;;8379317;28;20413;-65
2021/10/24 23:41:13;;;;;;;;;;;1.00;99.90;;;;;;8397073;28;19904;-65